EGKB/BQH METAR and TAF weather

Enter ICAO airport designator
Station Type Date Time Source
EGKB METAR 2018/04/23 11:20 UTC NOAA

EGKB 231120Z 23011KT 200V260 9999 BKN030 13/06 Q1017


Station Type Date Time Source
EGKB Decoded METAR 2018/04/23 11:20 UTC NOAA

Biggin Hill , United Kingdom (EGKB) 51-19N 000-02E
Apr 23, 2018 - 07:20 AM EDT / 2018.04.23 1120 UTC
Wind: from the SW (230 degrees) at 13 MPH (11 KT) (direction variable):0
Visibility: greater than 7 mile(s):0
Sky conditions: mostly cloudy
Temperature: 55 F (13 C)
Dew Point: 42 F (6 C)
Relative Humidity: 62%
Pressure (altimeter): 30.03 in. Hg (1017 hPa)
ob: EGKB 231120Z 23011KT 200V260 9999 BKN030 13/06 Q1017
cycle: 11

Station Type Date Time Source
EGKB TAF 2016/04/18 18:00 UTC NOAA

TAF EGKB 181658Z 1818/1820 26007KT 9999 BKN035


Example: see airport list